Terminal Aerodrome Forecast
Issued by NWS

Home | Current Version | Previous Version | Text Only | Print | Product List | Glossary On
Versions: 1 2 3 4 5 6 7 8 9 10 11 12 13 14 15
000
FTUS45 KABQ 171800 AAA
TAFSAF
TAF AMD
KSAF 171853Z 1719/1818 22008KT P6SM OVC025
      TEMPO 1719/1723 2SM -SN OVC006
     FM180200 29006KT P6SM OVC040
     FM181100 35007KT P6SM OVC025
     FM181500 35012KT P6SM BKN035=

USA.gov is the U.S. government's official web portal to all federal, state and local government web resources and services.